Time;durP1;ratioP1;P1;durP2;ratioP2;P2;SDS_P1;SDS_P2;PMS_P1;PMS_P2;Temp;Humidity;BMP_temperature;BMP_pressure;BME280_temperature;BME280_humidity;BME280_pressure;Samples;Min_cycle;Max_cycle;Signal;HPM_P1;HPM_P2
2021/09/12 00:01:26;;;;;;;;;;;;;;;15.36;76.11;99851.41;5026372;28;19924;-79
2021/09/12 00:03:51;;;;;;;;;;;;;;;15.36;75.82;99851.41;5030311;28;19928;-78
2021/09/12 00:06:17;;;;;;;;;;;;;;;15.30;76.06;99846.34;5012965;28;19924;-76
2021/09/12 00:08:42;;;;;;;;;;;;;;;15.33;75.93;99848.03;5023508;28;19920;-78
2021/09/12 00:11:08;;;;;;;;;;;;;;;15.30;75.93;99845.47;5010145;28;19921;-78
2021/09/12 00:13:34;;;;;;;;;;;;;;;15.26;75.94;99842.09;5024091;28;19917;-76
2021/09/12 00:16:01;;;;;;;;;;;;;;;15.20;75.98;99848.38;5010440;28;19924;-78
2021/09/12 00:18:26;;;;;;;;;;;;;;;15.14;75.86;99848.53;5025798;28;19916;-78
2021/09/12 00:20:52;;;;;;;;;;;;;;;15.11;76.04;99839.91;5008028;28;19925;-77
2021/09/12 00:23:17;;;;;;;;;;;;;;;15.05;76.01;99844.41;5006637;28;19970;-77
2021/09/12 00:25:43;;;;;;;;;;;;;;;15.01;76.36;99848.00;5026544;28;19967;-77
2021/09/12 00:28:09;;;;;;;;;;;;;;;14.93;76.12;99844.72;5006315;28;19920;-77
2021/09/12 00:30:34;;;;;;;;;;;;;;;14.87;76.19;99847.50;5004085;28;19924;-79
2021/09/12 00:33:00;;;;;;;;;;;;;;;14.80;76.27;99841.53;5025556;28;20382;-77
2021/09/12 00:35:26;;;;;;;;;;;;;;;14.74;76.26;99847.81;5026041;28;19916;-77
2021/09/12 00:37:53;;;;;;;;;;;;;;;14.69;76.48;99843.59;5023384;28;19921;-76
2021/09/12 00:40:20;;;;;;;;;;;;;;;14.65;76.49;99839.28;5026362;28;19917;-79
2021/09/12 00:42:47;;;;;;;;;;;;;;;14.60;76.39;99842.03;5025265;28;20015;-76
2021/09/12 00:45:14;;;;;;;;;;;;;;;14.56;76.30;99837.75;5023657;28;19921;-78
2021/09/12 00:47:40;;;;;;;;;;;;;;;14.51;76.38;99843.13;5009391;28;19921;-78
2021/09/12 00:50:06;;;;;;;;;;;;;;;14.48;76.55;99842.31;5025323;28;19952;-79
2021/09/12 00:52:33;;;;;;;;;;;;;;;14.42;76.72;99832.88;5037188;28;19925;-79
2021/09/12 00:55:00;;;;;;;;;;;;;;;14.37;76.52;99843.44;5002489;28;19921;-78
2021/09/12 00:57:25;;;;;;;;;;;;;;;14.36;76.74;99838.25;4993070;28;20934;-78
2021/09/12 00:59:52;;;;;;;;;;;;;;;14.34;76.94;99842.69;5006867;28;19921;-78
2021/09/12 01:02:18;;;;;;;;;;;;;;;14.27;76.62;99844.56;5024373;28;20376;-78
2021/09/12 01:04:44;;;;;;;;;;;;;;;14.22;76.56;99841.22;5025748;28;20020;-78
2021/09/12 01:07:10;;;;;;;;;;;;;;;14.16;76.56;99850.91;5024925;28;19999;-76
2021/09/12 01:09:37;;;;;;;;;;;;;;;14.13;76.88;99839.63;5008673;28;20015;-78
2021/09/12 01:12:03;;;;;;;;;;;;;;;14.11;76.94;99846.69;5024718;28;20622;-77
2021/09/12 01:14:30;;;;;;;;;;;;;;;14.07;76.94;99845.88;5037199;28;20486;-78
2021/09/12 01:16:56;;;;;;;;;;;;;;;14.03;76.88;99846.00;5003729;28;19967;-76
2021/09/12 01:19:22;;;;;;;;;;;;;;;14.00;77.00;99841.69;5024998;28;20003;-78
2021/09/12 01:21:53;;;;;;;;;;;;;;;13.92;76.98;99830.53;5023520;28;19968;-78
2021/09/12 01:24:18;;;;;;;;;;;;;;;13.89;77.15;99830.59;5021445;28;19917;-77
2021/09/12 01:26:44;;;;;;;;;;;;;;;13.80;76.97;99835.13;5025779;28;19986;-77
2021/09/12 01:29:13;;;;;;;;;;;;;;;13.79;77.22;99830.78;5043219;28;20011;-79
2021/09/12 01:31:38;;;;;;;;;;;;;;;13.78;77.43;99828.22;5040107;28;19976;-78
2021/09/12 01:34:04;;;;;;;;;;;;;;;13.76;77.26;99830.00;5038331;28;20030;-78
2021/09/12 01:36:29;;;;;;;;;;;;;;;13.64;77.09;99832.00;5029581;28;19921;-78
2021/09/12 01:38:55;;;;;;;;;;;;;;;13.63;77.29;99839.84;5025244;28;19968;-77
2021/09/12 01:41:20;;;;;;;;;;;;;;;13.62;77.58;99838.13;5023509;28;19940;-80
2021/09/12 01:43:46;;;;;;;;;;;;;;;13.60;77.48;99826.84;5025749;28;20610;-77
2021/09/12 01:46:12;;;;;;;;;;;;;;;13.57;77.58;99826.94;5008334;28;19921;-78
2021/09/12 01:48:37;;;;;;;;;;;;;;;13.57;77.72;99834.78;5024431;28;19916;-78
2021/09/12 01:51:03;;;;;;;;;;;;;;;13.57;77.70;99834.78;5024825;28;19917;-77
2021/09/12 01:53:28;;;;;;;;;;;;;;;13.55;77.73;99835.66;5025843;28;21356;-79
2021/09/12 01:55:54;;;;;;;;;;;;;;;13.52;77.79;99825.28;5024156;28;19917;-79
2021/09/12 01:58:19;;;;;;;;;;;;;;;13.51;77.79;99822.66;5025694;28;19997;-78
2021/09/12 02:00:45;;;;;;;;;;;;;;;13.48;77.55;99825.34;5006106;28;19927;-76
2021/09/12 02:03:10;;;;;;;;;;;;;;;13.45;77.61;99821.06;5009318;28;20030;-79
2021/09/12 02:05:36;;;;;;;;;;;;;;;13.42;77.74;99818.50;5024344;28;19944;-77
2021/09/12 02:08:02;;;;;;;;;;;;;;;13.39;77.75;99814.16;5023622;28;19978;-79
2021/09/12 02:10:29;;;;;;;;;;;;;;;13.35;77.78;99814.28;5021929;28;20658;-76
2021/09/12 02:12:55;;;;;;;;;;;;;;;13.32;77.71;99814.34;5024371;28;19971;-78
2021/09/12 02:15:20;;;;;;;;;;;;;;;13.29;77.57;99817.00;5037057;28;19925;-75
2021/09/12 02:17:46;;;;;;;;;;;;;;;13.24;77.71;99819.72;5026104;28;20435;-78
2021/09/12 02:20:13;;;;;;;;;;;;;;;13.18;77.68;99820.66;5005378;28;19924;-77
2021/09/12 02:22:38;;;;;;;;;;;;;;;13.17;77.75;99813.72;5007500;28;19921;-78
2021/09/12 02:25:04;;;;;;;;;;;;;;;13.17;77.98;99821.56;5022426;28;19983;-78
2021/09/12 02:27:29;;;;;;;;;;;;;;;13.15;77.89;99810.28;5022361;28;20020;-80
2021/09/12 02:29:56;;;;;;;;;;;;;;;13.14;77.84;99816.38;5005810;28;19920;-78
2021/09/12 02:32:22;;;;;;;;;;;;;;;13.14;78.06;99808.56;5022204;28;19921;-77
2021/09/12 02:34:47;;;;;;;;;;;;;;;13.13;77.94;99809.44;5005187;28;19944;-77
2021/09/12 02:37:13;;;;;;;;;;;;;;;13.13;77.94;99812.03;5023348;28;19924;-77
2021/09/12 02:39:38;;;;;;;;;;;;;;;13.11;77.87;99809.47;5028709;28;19964;-79
2021/09/12 02:42:04;;;;;;;;;;;;;;;13.11;77.93;99806.88;5007897;28;21009;-77
2021/09/12 02:44:30;;;;;;;;;;;;;;;13.11;78.04;99813.84;5004608;28;19928;-79
2021/09/12 02:46:55;;;;;;;;;;;;;;;13.12;78.08;99812.97;5022452;28;19952;-77
2021/09/12 02:49:21;;;;;;;;;;;;;;;13.11;78.03;99816.47;5020815;28;19917;-79
2021/09/12 02:51:46;;;;;;;;;;;;;;;13.10;77.94;99810.38;5022947;28;19941;-76
2021/09/12 02:54:12;;;;;;;;;;;;;;;13.10;78.06;99812.13;5021862;28;19924;-79
2021/09/12 02:56:37;;;;;;;;;;;;;;;13.09;77.95;99807.81;5018925;28;19920;-77
2021/09/12 02:59:03;;;;;;;;;;;;;;;13.07;78.05;99805.19;5005066;28;19956;-77
2021/09/12 03:01:29;;;;;;;;;;;;;;;13.09;78.25;99815.63;5006648;28;19925;-77
2021/09/12 03:03:55;;;;;;;;;;;;;;;13.09;78.03;99813.03;5004298;28;19948;-78
2021/09/12 03:06:20;;;;;;;;;;;;;;;13.08;78.00;99811.31;5007240;28;19963;-78
2021/09/12 03:08:46;;;;;;;;;;;;;;;13.07;78.10;99815.66;4989769;28;19940;-80
2021/09/12 03:11:12;;;;;;;;;;;;;;;13.10;78.07;99819.97;5006735;28;19917;-77
2021/09/12 03:13:37;;;;;;;;;;;;;;;13.14;78.09;99818.16;4982133;28;19916;-77
2021/09/12 03:16:03;;;;;;;;;;;;;;;13.15;78.12;99817.25;5022106;28;19924;-77
2021/09/12 03:18:29;;;;;;;;;;;;;;;13.18;78.02;99819.81;5024572;28;19983;-77
2021/09/12 03:20:54;;;;;;;;;;;;;;;13.22;78.07;99835.41;5022866;28;19952;-77
2021/09/12 03:23:20;;;;;;;;;;;;;;;13.27;78.06;99830.06;4990152;28;20158;-79
2021/09/12 03:25:46;;;;;;;;;;;;;;;13.30;78.13;99832.63;5005234;28;19970;-77
2021/09/12 03:28:11;;;;;;;;;;;;;;;13.37;78.19;99825.53;4988646;28;19952;-78
2021/09/12 03:30:37;;;;;;;;;;;;;;;13.42;78.10;99836.78;5022964;28;19935;-78
2021/09/12 03:33:02;;;;;;;;;;;;;;;13.46;78.08;99828.00;5003502;28;19924;-77
2021/09/12 03:35:28;;;;;;;;;;;;;;;13.52;78.09;99827.88;5006111;28;19964;-77
2021/09/12 03:37:54;;;;;;;;;;;;;;;13.59;77.94;99832.97;4989777;28;19923;-79
2021/09/12 03:40:21;;;;;;;;;;;;;;;13.65;77.93;99828.50;5006265;28;20424;-78
2021/09/12 03:42:46;;;;;;;;;;;;;;;13.75;77.79;99831.78;5006176;28;19921;-77
2021/09/12 03:45:12;;;;;;;;;;;;;;;13.82;77.78;99820.25;5004987;28;19917;-78
2021/09/12 03:47:37;;;;;;;;;;;;;;;13.90;77.78;99820.13;5007683;28;19924;-78
2021/09/12 03:50:05;;;;;;;;;;;;;;;13.99;77.65;99830.34;4981877;28;21134;-78
2021/09/12 03:52:30;;;;;;;;;;;;;;;13.91;77.52;99800.03;5006216;28;19968;-77
2021/09/12 03:54:56;;;;;;;;;;;;;;;14.13;77.36;99824.81;5022007;28;19928;-77
2021/09/12 03:57:23;;;;;;;;;;;;;;;14.23;77.50;99824.59;5006032;28;20833;-79
2021/09/12 03:59:52;;;;;;;;;;;;;;;14.31;77.45;99820.03;5021766;28;19917;-77
2021/09/12 04:02:18;;;;;;;;;;;;;;;14.37;77.26;99819.91;5003680;28;19921;-76
2021/09/12 04:04:44;;;;;;;;;;;;;;;14.45;77.00;99822.31;5021806;28;20395;-78
2021/09/12 04:07:09;;;;;;;;;;;;;;;14.56;77.29;99822.94;5022107;28;19921;-76
2021/09/12 04:09:35;;;;;;;;;;;;;;;14.71;76.89;99815.59;5005068;28;20007;-77
2021/09/12 04:12:00;;;;;;;;;;;;;;;14.82;76.81;99812.72;5005564;28;20726;-76
2021/09/12 04:14:26;;;;;;;;;;;;;;;14.99;76.75;99817.50;5003396;28;20355;-77
2021/09/12 04:16:51;;;;;;;;;;;;;;;15.15;76.63;99810.94;5022992;28;20327;-78
2021/09/12 04:19:17;;;;;;;;;;;;;;;15.36;76.60;99819.09;5001906;28;20407;-78
2021/09/12 04:21:43;;;;;;;;;;;;;;;15.52;76.18;99811.66;4988738;28;20373;-77
2021/09/12 04:24:08;;;;;;;;;;;;;;;15.64;76.25;99813.91;5021091;28;20735;-78
2021/09/12 04:26:34;;;;;;;;;;;;;;;15.82;76.17;99809.00;5009438;28;19921;-79
2021/09/12 04:29:00;;;;;;;;;;;;;;;16.07;75.84;99803.03;5011290;28;19952;-78
2021/09/12 04:31:25;;;;;;;;;;;;;;;16.27;75.49;99807.66;4981471;28;19924;-76
2021/09/12 04:33:51;;;;;;;;;;;;;;;16.39;75.08;99811.66;5004286;28;19923;-77
2021/09/12 04:36:16;;;;;;;;;;;;;;;16.71;74.93;99807.97;5021197;28;19916;-77
2021/09/12 04:38:42;;;;;;;;;;;;;;;17.09;74.54;99802.31;5006454;28;19921;-78
2021/09/12 04:41:07;;;;;;;;;;;;;;;17.46;74.34;99805.34;5003587;28;20049;-77
2021/09/12 04:43:33;;;;;;;;;;;;;;;17.85;73.75;99811.78;4991322;28;20404;-78
2021/09/12 04:45:59;;;;;;;;;;;;;;;18.19;72.81;99806.06;4992322;28;20012;-76
2021/09/12 04:48:25;;;;;;;;;;;;;;;18.46;72.60;99805.00;5009943;28;20018;-76
2021/09/12 04:50:52;;;;;;;;;;;;;;;18.79;72.16;99799.22;4998536;28;19922;-78
2021/09/12 04:53:18;;;;;;;;;;;;;;;19.19;71.68;99792.22;5008402;28;19920;-78
2021/09/12 04:55:43;;;;;;;;;;;;;;;19.99;71.63;99789.47;5045969;28;20300;-77
2021/09/12 04:58:09;;;;;;;;;;;;;;;21.28;70.70;99790.94;5028430;28;19921;-77
2021/09/12 05:00:34;;;;;;;;;;;;;;;22.61;69.22;99778.25;5029359;28;19967;-79
2021/09/12 05:03:00;;;;;;;;;;;;;;;23.60;67.21;99753.66;5012001;28;19921;-78
2021/09/12 05:05:25;;;;;;;;;;;;;;;24.43;65.44;99777.56;5027778;28;19921;-79
2021/09/12 05:07:54;;;;;;;;;;;;;;;25.19;63.62;99775.06;5045533;28;20275;-78
2021/09/12 05:10:20;;;;;;;;;;;;;;;26.02;62.20;99768.25;5026871;28;20467;-78
2021/09/12 05:12:46;;;;;;;;;;;;;;;26.74;61.33;99766.44;5030913;28;19916;-77
2021/09/12 05:15:13;;;;;;;;;;;;;;;27.03;59.19;99764.19;5012181;28;19916;-76
2021/09/12 05:17:42;;;;;;;;;;;;;;;26.77;58.86;99768.88;5032671;28;19986;-78
2021/09/12 05:20:08;;;;;;;;;;;;;;;27.06;58.42;99763.97;5017218;28;19978;-79
2021/09/12 05:22:34;;;;;;;;;;;;;;;27.67;57.32;99764.53;5035651;28;20360;-77
2021/09/12 05:25:01;;;;;;;;;;;;;;;28.52;56.52;99754.88;5029659;28;19927;-76
2021/09/12 05:27:26;;;;;;;;;;;;;;;29.44;55.63;99752.38;5045745;28;19982;-78
2021/09/12 05:29:52;;;;;;;;;;;;;;;30.24;53.89;99743.44;5028120;28;19956;-78
2021/09/12 05:32:18;;;;;;;;;;;;;;;30.98;52.49;99747.25;5012093;28;20283;-78
2021/09/12 05:34:44;;;;;;;;;;;;;;;31.72;51.91;99735.75;5011075;28;19939;-78
2021/09/12 05:37:11;;;;;;;;;;;;;;;32.27;48.49;99732.91;5043798;28;19921;-78
2021/09/12 05:39:39;;;;;;;;;;;;;;;32.86;48.98;99735.00;4996167;28;20284;-77
2021/09/12 05:42:14;;;;;;;;;;;;;;;33.41;47.12;99735.59;5026936;28;20007;-76
2021/09/12 05:44:40;;;;;;;;;;;;;;;34.02;46.34;99737.25;5024770;28;19921;-78
2021/09/12 05:47:11;;;;;;;;;;;;;;;34.29;44.26;99733.34;5029918;28;19927;-78
2021/09/12 05:50:21;;;;;;;;;;;;;;;34.72;43.30;99733.16;5017943;28;19917;-77
2021/09/12 05:52:47;;;;;;;;;;;;;;;35.19;42.79;99727.94;5031127;28;19921;-77
2021/09/12 05:59:47;;;;;;;;;;;;;;;36.44;39.84;99721.47;4965353;28;19986;-78
2021/09/12 06:06:45;;;;;;;;;;;;;;;36.46;38.38;99732.19;4962854;28;20080;-78
2021/09/12 06:09:10;;;;;;;;;;;;;;;35.37;38.87;99731.22;4954547;28;19921;-78
2021/09/12 06:11:36;;;;;;;;;;;;;;;33.85;40.32;99734.50;5005334;28;20269;-78
2021/09/12 06:14:07;;;;;;;;;;;;;;;32.66;42.18;99737.03;5007937;28;19952;-76
2021/09/12 06:16:35;;;;;;;;;;;;;;;31.58;44.17;99737.09;5022871;28;19917;-78
2021/09/12 06:19:01;;;;;;;;;;;;;;;31.08;44.32;99740.03;5024300;28;19932;-78
2021/09/12 06:21:27;;;;;;;;;;;;;;;30.79;44.32;99737.44;4991184;28;19917;-77
2021/09/12 06:23:56;;;;;;;;;;;;;;;30.09;44.41;99735.00;5023366;28;19917;-77
2021/09/12 06:26:21;;;;;;;;;;;;;;;29.40;45.12;99749.16;4989429;28;19921;-77
2021/09/12 06:28:47;;;;;;;;;;;;;;;28.77;45.87;99741.22;5006464;28;19917;-76
2021/09/12 06:31:15;;;;;;;;;;;;;;;28.40;46.14;99747.88;4988764;28;20375;-77
2021/09/12 06:33:40;;;;;;;;;;;;;;;28.35;46.43;99752.78;5000441;28;19925;-78
2021/09/12 06:36:12;;;;;;;;;;;;;;;28.38;45.28;99745.34;5022074;28;19924;-77
2021/09/12 06:38:40;;;;;;;;;;;;;;;28.05;45.60;99749.00;5006697;28;20007;-77
2021/09/12 06:41:06;;;;;;;;;;;;;;;28.13;45.41;99746.56;4987840;28;19921;-78
2021/09/12 06:43:34;;;;;;;;;;;;;;;28.75;45.05;99748.53;5006662;28;20398;-78
2021/09/12 06:46:00;;;;;;;;;;;;;;;29.52;43.57;99749.00;4984126;28;19967;-78
2021/09/12 06:48:29;;;;;;;;;;;;;;;29.55;42.20;99754.09;5005388;28;19917;-78
2021/09/12 06:50:57;;;;;;;;;;;;;;;30.20;42.10;99749.13;5003947;28;20380;-78
2021/09/12 06:53:23;;;;;;;;;;;;;;;30.98;40.18;99738.38;5006810;28;19925;-75
2021/09/12 06:55:53;;;;;;;;;;;;;;;32.25;39.17;99736.72;5006002;28;20332;-78
2021/09/12 06:58:19;;;;;;;;;;;;;;;33.62;37.41;99737.84;5019066;28;19971;-78
2021/09/12 07:00:45;;;;;;;;;;;;;;;34.73;36.13;99729.44;5018272;28;19925;-79
2021/09/12 07:03:23;;;;;;;;;;;;;;;34.66;35.47;99733.84;5020799;28;19920;-79
2021/09/12 07:05:54;;;;;;;;;;;;;;;33.77;35.24;99740.72;5019936;28;19943;-79
2021/09/12 07:08:31;;;;;;;;;;;;;;;32.84;36.64;99738.84;5002063;28;19917;-80
2021/09/12 07:11:23;;;;;;;;;;;;;;;32.46;37.45;99741.78;5004774;28;19976;-80
2021/09/12 07:13:49;;;;;;;;;;;;;;;32.41;37.70;99736.88;5012258;28;19924;-78
2021/09/12 07:16:41;;;;;;;;;;;;;;;32.94;36.91;99739.59;5015719;28;20494;-79
2021/09/12 07:19:10;;;;;;;;;;;;;;;34.50;35.75;99740.97;5019449;28;19923;-79
2021/09/12 07:21:39;;;;;;;;;;;;;;;34.95;33.53;99730.56;5023916;28;19952;-79
2021/09/12 07:24:13;;;;;;;;;;;;;;;34.21;34.39;99704.50;5001060;28;19921;-78
2021/09/12 07:26:57;;;;;;;;;;;;;;;33.42;35.10;99739.16;5001986;28;19921;-80
2021/09/12 07:30:03;;;;;;;;;;;;;;;32.45;36.64;99742.78;5022011;28;19975;-77
2021/09/12 07:32:41;;;;;;;;;;;;;;;31.85;37.44;99749.66;4960038;28;19981;-78
2021/09/12 07:35:08;;;;;;;;;;;;;;;31.16;37.87;99743.81;4944613;28;19925;-78
2021/09/12 07:37:37;;;;;;;;;;;;;;;30.53;38.19;99746.09;4945118;28;19973;-77
2021/09/12 07:40:52;;;;;;;;;;;;;;;29.98;39.11;99757.44;4942136;28;20325;-79
2021/09/12 07:43:18;;;;;;;;;;;;;;;29.72;39.24;99742.69;4888112;29;19966;-79
2021/09/12 07:45:44;;;;;;;;;;;;;;;29.70;39.41;99752.72;4900814;29;19922;-79
2021/09/12 07:48:10;;;;;;;;;;;;;;;29.42;39.03;99752.53;4925875;29;20578;-77
2021/09/12 07:51:11;;;;;;;;;;;;;;;28.93;39.56;99754.16;4936984;29;20017;-79
2021/09/12 07:53:52;;;;;;;;;;;;;;;;;;;;;
2021/09/12 07:56:28;;;;;;;;;;;;;;;28.86;39.61;99746.63;4896573;29;19925;-79
2021/09/12 07:58:54;;;;;;;;;;;;;;;28.51;39.72;99744.28;4940372;29;19922;-79
2021/09/12 08:01:32;;;;;;;;;;;;;;;28.24;39.82;99743.84;4983641;28;20369;-79
2021/09/12 08:04:10;;;;;;;;;;;;;;;27.77;40.52;99743.25;5019807;28;19979;-77
2021/09/12 08:06:36;;;;;;;;;;;;;;;27.70;40.62;99737.56;4983827;28;19918;-78
2021/09/12 08:09:02;;;;;;;;;;;;;;;27.67;40.33;99740.50;4964425;28;19975;-79
2021/09/12 08:11:28;;;;;;;;;;;;;;;29.36;40.50;99733.44;4995669;28;19921;-79
2021/09/12 08:14:03;;;;;;;;;;;;;;;31.78;37.27;99727.91;4980137;28;20409;-80
2021/09/12 08:16:39;;;;;;;;;;;;;;;33.29;34.67;99723.41;4976714;28;19925;-77
2021/09/12 08:19:05;;;;;;;;;;;;;;;34.81;32.68;99718.59;4982073;28;20431;-79
2021/09/12 08:21:49;;;;;;;;;;;;;;;;;;;;;
2021/09/12 08:24:54;;;;;;;;;;;;;;;34.44;32.29;99727.28;4996534;28;19917;-78
2021/09/12 08:27:30;;;;;;;;;;;;;;;33.39;33.50;99731.38;4986800;28;20944;-78
2021/09/12 08:29:55;;;;;;;;;;;;;;;32.58;34.47;99736.97;4979463;28;20361;-78
2021/09/12 08:32:35;;;;;;;;;;;;;;;32.00;34.22;99736.53;4983282;28;19921;-78
2021/09/12 08:35:27;;;;;;;;;;;;;;;31.28;35.06;99728.34;4995446;28;19928;-76
2021/09/12 08:37:56;;;;;;;;;;;;;;;30.69;35.77;99736.63;5005402;28;20055;-79
2021/09/12 08:41:33;;;;;;;;;;;;;;;30.19;36.03;99738.50;5009693;28;19921;-77
2021/09/12 08:44:21;;;;;;;;;;;;;;;29.69;36.75;99734.09;5003737;28;20397;-78
2021/09/12 08:46:47;;;;;;;;;;;;;;;29.50;36.66;99730.41;5026865;28;20004;-79
2021/09/12 08:49:24;;;;;;;;;;;;;;;29.61;36.09;99727.59;5007210;28;19917;-80
2021/09/12 08:51:56;;;;;;;;;;;;;;;29.38;36.74;99726.13;5023342;28;19932;-80
2021/09/12 08:54:46;;;;;;;;;;;;;;;29.11;36.44;99720.38;4986247;28;19951;-77
2021/09/12 08:57:43;;;;;;;;;;;;;;;29.00;37.27;99726.69;5029272;28;19917;-78
2021/09/12 09:04:04;;;;;;;;;;;;;;;29.16;36.44;99734.22;4945118;28;19975;-78
2021/09/12 09:15:14;;;;;;;;;;;;;;;28.64;36.68;99728.03;4946023;28;20609;-80
2021/09/12 09:18:11;;;;;;;;;;;;;;;28.24;37.18;99735.81;4951460;28;19921;-78
2021/09/12 09:20:47;;;;;;;;;;;;;;;28.03;37.50;99741.09;4966780;28;19917;-78
2021/09/12 09:23:52;;;;;;;;;;;;;;;27.68;37.91;99736.84;4968906;28;19925;-77
2021/09/12 09:26:40;;;;;;;;;;;;;;;;;;;;;
2021/09/12 09:29:58;;;;;;;;;;;;;;;27.88;38.09;99737.88;4983831;28;20028;-76
2021/09/12 09:36:20;;;;;;;;;;;;;;;26.91;38.88;99739.34;4978967;28;20036;-77
2021/09/12 09:39:15;;;;;;;;;;;;;;;26.51;38.86;99721.03;4982648;28;19918;-79
2021/09/12 09:45:42;;;;;;;;;;;;;;;26.12;40.10;99742.66;4982611;28;20094;-78
2021/09/12 09:48:39;;;;;;;;;;;;;;;25.61;40.79;99745.50;5011101;28;19924;-78
2021/09/12 09:51:10;;;;;;;;;;;;;;;25.37;41.27;99735.63;5027042;28;19921;-78
2021/09/12 09:53:45;;;;;;;;;;;;;;;25.09;41.87;99741.13;5028524;28;19917;-79
2021/09/12 09:56:19;;;;;;;;;;;;;;;24.87;41.80;99732.94;5026948;28;19917;-78
2021/09/12 09:58:52;;;;;;;;;;;;;;;24.63;42.48;99738.97;5028229;28;19924;-79
2021/09/12 10:05:10;;;;;;;;;;;;;;;24.02;43.05;99713.78;5017846;28;20874;-79
2021/09/12 10:07:40;;;;;;;;;;;;;;;24.05;43.48;99740.16;5030386;28;20458;-78
2021/09/12 10:10:30;;;;;;;;;;;;;;;23.80;43.94;99748.84;5030034;28;20277;-79
2021/09/12 10:13:02;;;;;;;;;;;;;;;23.51;43.94;99750.72;4968853;28;20031;-79
2021/09/12 10:16:06;;;;;;;;;;;;;;;23.26;44.44;99736.38;5029312;28;20100;-78
2021/09/12 10:19:28;;;;;;;;;;;;;;;22.96;44.82;99745.25;5014821;28;19923;-80
2021/09/12 10:22:43;;;;;;;;;;;;;;;22.79;45.25;99752.44;5025840;28;19979;-81
2021/09/12 10:25:20;;;;;;;;;;;;;;;22.56;45.75;99754.69;5016316;28;19923;-77
2021/09/12 10:28:30;;;;;;;;;;;;;;;22.35;46.14;99748.81;5001453;28;19947;-77
2021/09/12 10:30:56;;;;;;;;;;;;;;;22.30;46.18;99755.31;5020661;28;20335;-78
2021/09/12 10:33:28;;;;;;;;;;;;;;;22.17;46.50;99749.88;5025097;28;19927;-78
2021/09/12 10:36:22;;;;;;;;;;;;;;;22.04;47.08;99752.38;5007689;28;19930;-79
2021/09/12 10:38:51;;;;;;;;;;;;;;;21.99;47.41;99736.78;5034255;28;19917;-79
2021/09/12 10:41:20;;;;;;;;;;;;;;;21.97;47.76;99739.50;5042950;28;19928;-78
2021/09/12 10:43:55;;;;;;;;;;;;;;;22.02;47.52;99739.25;5042764;28;20360;-79
2021/09/12 10:46:24;;;;;;;;;;;;;;;22.04;47.41;99739.13;5007448;28;19985;-77
2021/09/12 10:49:05;;;;;;;;;;;;;;;22.02;47.65;99741.91;5008803;28;20026;-80
2021/09/12 10:51:38;;;;;;;;;;;;;;;21.98;48.02;99735.06;5023155;28;19962;-79
2021/09/12 10:54:04;;;;;;;;;;;;;;;21.93;48.12;99735.34;5019323;28;19977;-77
2021/09/12 10:56:59;;;;;;;;;;;;;;;;;;;;;
2021/09/12 11:00:23;;;;;;;;;;;;;;;21.80;48.24;99736.97;5023675;28;19982;-79
2021/09/12 11:02:54;;;;;;;;;;;;;;;21.72;48.58;99739.19;5018652;28;19917;-79
2021/09/12 11:05:22;;;;;;;;;;;;;;;21.60;48.72;99738.06;5027764;28;19916;-78
2021/09/12 11:08:20;;;;;;;;;;;;;;;21.44;49.07;99730.13;5028621;28;20395;-80
2021/09/12 11:15:54;;;;;;;;;;;;;;;;;;;;;
2021/09/12 11:19:16;;;;;;;;;;;;;;;21.35;50.06;99727.03;5044079;28;19923;-80
2021/09/12 11:28:29;;;;;;;;;;;;;;;21.60;49.89;99724.81;4937930;28;20045;-77
2021/09/12 11:31:04;;;;;;;;;;;;;;;21.62;49.92;99721.19;4986216;28;19917;-80
2021/09/12 11:33:59;;;;;;;;;;;;;;;21.56;50.33;99721.47;4961364;28;19924;-77
2021/09/12 11:36:25;;;;;;;;;;;;;;;21.55;50.18;99722.41;4994157;28;20554;-78
2021/09/12 11:39:04;;;;;;;;;;;;;;;;;;;;;
2021/09/12 11:42:35;;;;;;;;;;;;;;;21.62;50.47;99715.88;4975488;28;20358;-77
2021/09/12 11:45:00;;;;;;;;;;;;;;;21.72;50.74;99705.63;4977403;28;19956;-78
2021/09/12 11:48:15;;;;;;;;;;;;;;;21.83;50.73;99704.16;4943541;28;20561;-79
2021/09/12 11:51:09;;;;;;;;;;;;;;;21.90;50.67;99700.19;4976586;28;19976;-79
2021/09/12 11:57:38;;;;;;;;;;;;;;;21.99;50.42;99698.81;5027152;28;19917;-79
2021/09/12 12:04:02;;;;;;;;;;;;;;;22.16;50.31;99680.16;4997624;28;20462;-79
2021/09/12 12:10:30;;;;;;;;;;;;;;;22.19;50.25;99672.00;5033902;28;20042;-78
2021/09/12 12:14:20;;;;;;;;;;;;;;;22.13;50.43;99672.38;5056176;28;20344;-78
2021/09/12 12:17:20;;;;;;;;;;;;;;;22.04;50.65;99664.97;5045129;28;20015;-78
2021/09/12 12:19:58;;;;;;;;;;;;;;;21.98;50.83;99668.84;5043136;28;19923;-73
2021/09/12 12:26:16;;;;;;;;;;;;;;;21.76;51.34;99674.50;5043066;28;19957;-77
2021/09/12 12:29:08;;;;;;;;;;;;;;;21.74;51.87;99663.16;5043508;28;19916;-77
2021/09/12 12:31:37;;;;;;;;;;;;;;;21.66;51.71;99663.59;5027468;28;20371;-76
2021/09/12 12:34:35;;;;;;;;;;;;;;;21.71;52.30;99666.84;5047299;28;19925;-76
2021/09/12 12:37:10;;;;;;;;;;;;;;;21.80;52.14;99657.50;5046373;28;19920;-77
2021/09/12 12:39:45;;;;;;;;;;;;;;;21.87;52.10;99650.06;5044027;28;19927;-76
2021/09/12 12:42:13;;;;;;;;;;;;;;;21.95;52.04;99654.00;5063166;28;19920;-76
2021/09/12 12:44:48;;;;;;;;;;;;;;;22.06;51.72;99649.84;5044659;28;19916;-76
2021/09/12 12:47:37;;;;;;;;;;;;;;;22.01;52.07;99652.78;5049836;28;19927;-74
2021/09/12 12:50:12;;;;;;;;;;;;;;;22.00;52.07;99647.53;5033023;28;19930;-74
2021/09/12 12:53:05;;;;;;;;;;;;;;;22.08;52.27;99650.59;5031506;28;19921;-76
2021/09/12 12:55:47;;;;;;;;;;;;;;;22.10;52.32;99641.63;5025800;28;19925;-75
2021/09/12 12:58:38;;;;;;;;;;;;;;;22.33;52.09;99641.19;5025274;28;19960;-77
2021/09/12 13:03:53;;;;;;;;;;;;;;;22.44;51.84;99636.09;5014682;28;19916;-75
2021/09/12 13:06:21;;;;;;;;;;;;;;;22.40;51.71;99635.41;5042498;28;19943;-76
2021/09/12 13:08:49;;;;;;;;;;;;;;;22.36;51.73;99636.53;5026740;28;19924;-73
2021/09/12 13:11:14;;;;;;;;;;;;;;;22.33;51.81;99627.94;5022412;28;19921;-76
2021/09/12 13:13:41;;;;;;;;;;;;;;;22.30;51.55;99634.25;5026912;28;20448;-76
2021/09/12 13:16:24;;;;;;;;;;;;;;;22.29;51.49;99621.13;5027950;28;19923;-77
2021/09/12 13:19:04;;;;;;;;;;;;;;;22.19;51.70;99631.41;5000036;28;19923;-79
2021/09/12 13:21:32;;;;;;;;;;;;;;;22.16;51.62;99624.53;5010482;28;19946;-76
2021/09/12 13:24:01;;;;;;;;;;;;;;;22.16;51.71;99623.66;5014836;28;20491;-77
2021/09/12 13:26:36;;;;;;;;;;;;;;;22.12;51.26;99621.19;5025639;28;20058;-79
2021/09/12 13:29:06;;;;;;;;;;;;;;;22.11;51.35;99616.81;5028034;28;19923;-79
2021/09/12 13:31:33;;;;;;;;;;;;;;;22.06;51.60;99610.09;5044111;28;19921;-77
2021/09/12 13:34:02;;;;;;;;;;;;;;;22.03;51.64;99616.44;5029549;28;19939;-78
2021/09/12 13:36:30;;;;;;;;;;;;;;;21.99;51.49;99622.88;5042993;28;19917;-80
2021/09/12 13:39:07;;;;;;;;;;;;;;;21.96;51.70;99613.28;5040944;28;19917;-78
2021/09/12 13:41:36;;;;;;;;;;;;;;;21.96;51.73;99610.66;5040391;28;19917;-78
2021/09/12 13:44:06;;;;;;;;;;;;;;;21.94;51.75;99609.91;5009814;28;19921;-78
2021/09/12 13:46:36;;;;;;;;;;;;;;;21.89;51.36;99604.03;5026331;28;19952;-79
2021/09/12 13:49:03;;;;;;;;;;;;;;;21.82;51.97;99605.31;5026724;28;19917;-78
2021/09/12 13:51:32;;;;;;;;;;;;;;;21.82;51.82;99600.03;5026765;28;19927;-77
2021/09/12 13:53:59;;;;;;;;;;;;;;;21.80;51.83;99604.56;5045691;28;19971;-79
2021/09/12 13:56:31;;;;;;;;;;;;;;;21.78;51.74;99593.19;5047019;28;19920;-76
2021/09/12 13:59:15;;;;;;;;;;;;;;;21.76;51.96;99592.44;5014758;28;19916;-77
2021/09/12 14:01:41;;;;;;;;;;;;;;;21.74;51.87;99594.31;5050555;28;19920;-75
2021/09/12 14:04:08;;;;;;;;;;;;;;;21.68;52.33;99592.88;5027117;28;19954;-77
2021/09/12 14:06:33;;;;;;;;;;;;;;;21.65;52.06;99596.56;5048995;28;19940;-78
2021/09/12 14:09:23;;;;;;;;;;;;;;;21.60;52.23;99588.00;5032799;28;19955;-76
2021/09/12 14:12:06;;;;;;;;;;;;;;;21.53;52.17;99589.31;5046272;28;19947;-76
2021/09/12 14:14:32;;;;;;;;;;;;;;;21.48;52.72;99580.78;5040264;28;20386;-78
2021/09/12 14:16:57;;;;;;;;;;;;;;;21.42;52.55;99586.44;5033693;28;19959;-79
2021/09/12 14:19:29;;;;;;;;;;;;;;;21.34;52.83;99579.78;5034137;28;19974;-76
2021/09/12 14:22:01;;;;;;;;;;;;;;;21.31;53.05;99573.81;5045268;28;19916;-76
2021/09/12 14:24:27;;;;;;;;;;;;;;;21.28;53.21;99571.34;5051945;28;19992;-79